Weather History for Indianapolis, IN

Change the Weather History Date:

Wednesday, April 24, 2013

  Actual Average (KEYE) Record (KEYE)
Temperature  
Mean Temperature 47 °F 56 °F  
Max Temperature 49 °F 66 °F 77 °F (2008)
Min Temperature 37 °F 46 °F 35 °F (2005)
Degree Days  
Heating Degree Days 18 10  
Month to date heating degree days 318  
Since 1 July heating degree days 5143  
Cooling Degree Days 0 1  
Month to date cooling degree days 14  
Year to date cooling degree days 15  
Moisture  
Dew Point 35 °F    
Average Humidity 78    
Maximum Humidity 89    
Minimum Humidity 52    
Precipitation  
Precipitation 0.68 in 0.15 in 0.69 in (2002)
Month to date precipitation 2.87  
Year to date precipitation 10.51  
Sea Level Pressure  
Sea Level Pressure 29.99 in    
Wind  
Wind Speed 10 mph (NW)    
Max Wind Speed 18 mph    
Max Gust Speed 25 mph    
Visibility 9 miles    
Events Rain    
T = Trace of Precipitation, MM = Missing Value Source: NWS Daily Summary

Daily Weather History Graph

Daily Weather History Graph

Search for Another Location

Airport:

Trip Planner

Search our weather history database for the weather conditions in past years. The results will help you decide how hot, cold, wet, or windy it might be!

Date:

Astronomy

Apr. 24, 2013 Rise Set
Actual Time 6:53 AM EDT 8:32 PM EDT
Civil Twilight 6:25 AM EDT 9:01 PM EDT
Nautical Twilight 5:50 AM EDT 9:36 PM EDT
Astronomical Twilight 5:13 AM EDT 10:13 PM EDT
Moon 7:35 PM EDT (4/24) 5:57 AM EDT (4/24)
Length of Visible Light 14h 36m
Length of Day
13h 39m
Waxing Gibbous, 98% of the Moon is Illuminated
Apr 24
Waxing Gibbous
Apr 25
Full
May 2
Last Quarter
May 9
New
May 18
First Quarter

Hourly Weather History & Observations

Time (EDT) Temp. Windchill Dew Point Humidity Pressure Visibility Wind Dir Wind Speed Gust Speed Precip Events Conditions
12:15 AM 57.4 °F - 54.0 °F 88% 29.82 in 4.0 mi Calm Calm - 0.10 in Rain Heavy Rain
12:35 AM 56.8 °F - 53.4 °F 88% 29.82 in 3.0 mi NW 8.1 mph - 0.19 in Rain Rain
12:55 AM 50.2 °F - 46.8 °F 88% 29.81 in 7.0 mi NNW 13.8 mph - 0.24 in Rain Light Rain
1:15 AM 47.3 °F - 44.1 °F 88% 29.83 in 10.0 mi NNW 10.4 mph - N/A Rain Light Rain
1:35 AM 46.4 °F 41.5 °F 43.2 °F 88% 29.82 in 10.0 mi NNW 10.4 mph - 0.01 in Rain Rain
1:55 AM 45.7 °F 40.6 °F 42.6 °F 89% 29.82 in 10.0 mi NW 10.4 mph 16.1 mph 0.03 in Rain Light Rain
2:15 AM 45.0 °F 39.3 °F 41.5 °F 88% 29.85 in 7.0 mi NW 11.5 mph - 0.01 in Rain Light Rain
2:35 AM 44.8 °F 39.9 °F 41.4 °F 88% 29.83 in 7.0 mi North 9.2 mph - 0.05 in Rain Light Rain
2:55 AM 44.4 °F 38.2 °F 41.0 °F 88% 29.84 in 10.0 mi NNW 12.7 mph 17.3 mph 0.05 in Rain Rain
3:15 AM 43.0 °F 36.8 °F 39.4 °F 87% 29.86 in 7.0 mi NW 11.5 mph 18.4 mph 0.04 in Rain Light Rain
3:35 AM 42.4 °F 35.3 °F 39.0 °F 88% 29.85 in 10.0 mi NW 13.8 mph 19.6 mph 0.05 in   Drizzle
3:55 AM 41.9 °F 34.6 °F 38.1 °F 86% 29.86 in 10.0 mi NW 13.8 mph 18.4 mph 0.06 in Rain Rain
4:15 AM 41.7 °F 35.6 °F 37.9 °F 86% 29.86 in 7.0 mi NW 10.4 mph - 0.01 in Rain Rain
4:35 AM 41.2 °F 34.5 °F 37.4 °F 86% 29.86 in 10.0 mi NNW 11.5 mph 19.6 mph 0.02 in   Overcast
4:55 AM 41.0 °F 34.3 °F 37.4 °F 87% 29.87 in 10.0 mi NNW 11.5 mph - 0.02 in Rain Light Rain
5:15 AM 40.8 °F 35.0 °F 36.9 °F 86% 29.87 in 10.0 mi NW 9.2 mph - 0.01 in Rain Light Rain
5:35 AM 40.3 °F 33.0 °F 36.5 °F 86% 29.86 in 10.0 mi NNW 12.7 mph - 0.02 in Rain Rain
6:15 AM 39.7 °F 31.9 °F 36.0 °F 86% 29.88 in 7.0 mi NW 13.8 mph 17.3 mph 0.03 in Rain Rain
6:35 AM 39.4 °F 33.2 °F 35.6 °F 86% 29.90 in 7.0 mi NW 9.2 mph 12.7 mph 0.05 in Rain Rain
6:55 AM 39.2 °F 31.6 °F 35.6 °F 87% 29.90 in 7.0 mi NW 12.7 mph 18.4 mph 0.08 in Rain Light Rain
7:15 AM 39.2 °F 31.6 °F 35.4 °F 86% 29.89 in 7.0 mi NW 12.7 mph 19.6 mph 0.04 in Rain Rain
7:35 AM 38.7 °F 30.5 °F 34.9 °F 86% 29.90 in 5.0 mi NW 13.8 mph 20.7 mph 0.09 in Rain Light Rain
7:55 AM 38.5 °F 31.6 °F 34.7 °F 86% 29.91 in 7.0 mi NNW 10.4 mph - 0.11 in Rain Light Rain
8:15 AM 38.3 °F 30.1 °F 34.7 °F 87% 29.90 in 10.0 mi NNW 13.8 mph - 0.02 in Rain Light Rain
8:35 AM 38.3 °F 29.7 °F 34.2 °F 85% 29.90 in 7.0 mi NNW 15.0 mph 18.4 mph 0.04 in Rain Light Rain
8:55 AM 37.8 °F 29.0 °F 33.8 °F 86% 29.91 in 10.0 mi NNW 15.0 mph 18.4 mph 0.05 in Rain Light Rain
9:15 AM 37.4 °F 28.9 °F 33.3 °F 85% 29.91 in 10.0 mi NNW 13.8 mph 18.4 mph N/A Rain Light Rain
9:35 AM 37.6 °F 31.0 °F 33.6 °F 86% 29.92 in 10.0 mi NNW 9.2 mph - N/A Rain Rain
9:55 AM 38.1 °F 31.2 °F 33.6 °F 84% 29.91 in 10.0 mi NNW 10.4 mph - N/A   Overcast
10:15 AM 38.3 °F 30.1 °F 33.3 °F 82% 29.93 in 10.0 mi NNW 13.8 mph - N/A   Overcast
10:35 AM 38.3 °F 30.9 °F 32.9 °F 81% 29.95 in 10.0 mi NW 11.5 mph 18.4 mph N/A   Overcast
10:55 AM 38.7 °F 30.9 °F 33.1 °F 80% 29.95 in 10.0 mi NW 12.7 mph 18.4 mph N/A   Overcast
11:15 AM 38.5 °F 29.6 °F 32.2 °F 78% 29.97 in 10.0 mi NW 16.1 mph 23.0 mph N/A   Overcast
11:35 AM 37.9 °F 28.2 °F 32.0 °F 79% 29.98 in 7.0 mi NW 18.4 mph 25.3 mph N/A Rain Light Rain
11:55 AM 37.8 °F 29.0 °F 32.9 °F 83% 29.99 in 7.0 mi NW 15.0 mph 21.9 mph N/A Rain Light Rain
12:15 PM 38.3 °F 29.3 °F 33.8 °F 84% 30.00 in 10.0 mi NW 16.1 mph 20.7 mph 0.01 in Rain Light Rain
12:35 PM 38.7 °F 30.1 °F 33.6 °F 82% 30.00 in 10.0 mi NW 15.0 mph 20.7 mph 0.01 in   Overcast
12:55 PM 39.0 °F 32.8 °F 33.3 °F 80% 30.02 in 10.0 mi NW 9.2 mph 21.9 mph 0.01 in   Overcast
1:15 PM 39.2 °F 31.2 °F 33.3 °F 79% 30.03 in 10.0 mi NNW 13.8 mph 20.7 mph N/A   Overcast
1:35 PM 40.1 °F 32.4 °F 33.4 °F 77% 30.05 in 10.0 mi NW 13.8 mph 17.3 mph N/A   Overcast
1:55 PM 40.8 °F 34.1 °F 34.3 °F 78% 30.05 in 10.0 mi NW 11.5 mph - N/A   Overcast
2:15 PM 41.4 °F 34.0 °F 33.4 °F 73% 30.05 in 10.0 mi NW 13.8 mph 19.6 mph N/A   Overcast
2:35 PM 42.1 °F 36.1 °F 34.5 °F 75% 30.06 in 10.0 mi WNW 10.4 mph 19.6 mph N/A   Overcast
2:55 PM 42.3 °F 35.1 °F 34.3 °F 74% 30.06 in 10.0 mi WNW 13.8 mph 18.4 mph N/A   Overcast
3:15 PM 42.8 °F 36.6 °F 34.7 °F 73% 30.08 in 10.0 mi WNW 11.5 mph 20.7 mph N/A   Overcast
3:35 PM 42.8 °F 37.0 °F 34.7 °F 73% 30.08 in 10.0 mi West 10.4 mph 17.3 mph N/A   Overcast
3:55 PM 40.6 °F 35.4 °F 35.4 °F 82% 30.08 in 5.0 mi WNW 8.1 mph 18.4 mph N/A Rain Light Rain
4:15 PM 42.4 °F 34.7 °F 35.8 °F 77% 30.09 in 7.0 mi WNW 16.1 mph 24.2 mph N/A Rain Rain
4:35 PM 43.2 °F 35.9 °F 37.2 °F 80% 30.09 in 10.0 mi NW 15.0 mph 19.6 mph N/A   Mostly Cloudy
4:55 PM 43.7 °F 38.1 °F 35.4 °F 73% 30.09 in 10.0 mi WNW 10.4 mph - N/A Rain Light Rain
5:15 PM 45.7 °F 39.1 °F 36.0 °F 69% 30.09 in 10.0 mi West 15.0 mph 19.6 mph N/A   Mostly Cloudy
5:35 PM 45.5 °F 39.9 °F 34.2 °F 65% 30.10 in 10.0 mi WNW 11.5 mph 20.7 mph N/A   Mostly Cloudy
5:55 PM 45.9 °F 40.8 °F 33.6 °F 62% 30.11 in 10.0 mi WNW 10.4 mph 20.7 mph N/A   Mostly Cloudy
6:15 PM 46.4 °F 40.1 °F 31.8 °F 57% 30.12 in 10.0 mi West 15.0 mph 18.4 mph N/A   Mostly Cloudy
6:35 PM 46.8 °F - 30.0 °F 52% 30.12 in 10.0 mi WNW 15.0 mph 23.0 mph 0.01 in   Mostly Cloudy
6:55 PM 46.0 °F 41.0 °F 29.5 °F 52% 30.13 in 10.0 mi West 10.4 mph 18.4 mph 0.01 in   Mostly Cloudy
7:15 PM 45.3 °F 40.6 °F 31.5 °F 58% 30.14 in 10.0 mi WNW 9.2 mph - N/A   Mostly Cloudy
7:35 PM 45.9 °F 41.7 °F 29.8 °F 54% 30.14 in 10.0 mi WNW 8.1 mph 17.3 mph N/A   Mostly Cloudy
7:55 PM 45.0 °F 39.3 °F 28.6 °F 53% 30.15 in 10.0 mi West 11.5 mph - N/A   Scattered Clouds
8:15 PM 44.1 °F 40.1 °F 29.3 °F 56% 30.15 in 10.0 mi West 6.9 mph - N/A   Scattered Clouds
8:35 PM 43.9 °F 39.9 °F 29.3 °F 57% 30.16 in 10.0 mi West 6.9 mph - N/A   Mostly Cloudy
8:55 PM 43.2 °F 41.5 °F 31.1 °F 62% 30.17 in 10.0 mi West 3.5 mph - N/A   Overcast
9:15 PM 42.8 °F 41.1 °F 30.9 °F 63% 30.19 in 10.0 mi West 3.5 mph - N/A   Overcast
9:35 PM 42.4 °F 39.6 °F 31.8 °F 66% 30.20 in 10.0 mi WSW 4.6 mph - N/A   Overcast
9:55 PM 42.3 °F - 32.2 °F 67% 30.21 in 10.0 mi Calm Calm - N/A   Overcast
11:15 PM 39.9 °F 35.1 °F 32.0 °F 73% 30.22 in 10.0 mi WSW 6.9 mph - N/A   Clear
11:35 PM 39.9 °F 35.8 °F 32.0 °F 73% 30.22 in 10.0 mi WSW 5.8 mph - N/A   Clear
11:55 PM 39.4 °F 34.5 °F 32.0 °F 75% 30.22 in 10.0 mi WSW 6.9 mph - N/A   Clear